sensor_id;sensor_type;location;lat;lon;timestamp;pressure;altitude;pressure_sealevel;temperature;humidity
13836;BME280;6988;52.614;13.500;2022-07-04T00:02:00;53494.75;;;-143.77;55.63
13836;BME280;6988;52.614;13.500;2022-07-04T00:06:53;53478.34;;;-143.77;55.70
13836;BME280;6988;52.614;13.500;2022-07-04T00:11:45;53490.66;;;-143.77;55.99
13836;BME280;6988;52.614;13.500;2022-07-04T00:16:36;53502.97;;;-143.77;56.55
13836;BME280;6988;52.614;13.500;2022-07-04T00:21:28;53513.22;;;-143.77;56.65
13836;BME280;6988;52.614;13.500;2022-07-04T00:26:21;53502.97;;;-143.77;56.68
13836;BME280;6988;52.614;13.500;2022-07-04T00:31:13;53529.63;;;-143.77;57.33
13836;BME280;6988;52.614;13.500;2022-07-04T00:36:05;53502.97;;;-143.77;57.73
13836;BME280;6988;52.614;13.500;2022-07-04T00:40:57;53548.09;;;-143.77;58.53
13836;BME280;6988;52.614;13.500;2022-07-04T00:45:51;53546.03;;;-143.77;59.10
13836;BME280;6988;52.614;13.500;2022-07-04T00:50:44;53531.69;;;-143.77;59.69
13836;BME280;6988;52.614;13.500;2022-07-04T00:55:36;53576.81;;;-143.77;59.80
13836;BME280;6988;52.614;13.500;2022-07-04T01:00:30;53564.50;;;-143.77;59.94
13836;BME280;6988;52.614;13.500;2022-07-04T01:05:23;53562.44;;;-143.77;59.96
13836;BME280;6988;52.614;13.500;2022-07-04T01:10:15;53572.72;;;-143.77;60.01
13836;BME280;6988;52.614;13.500;2022-07-04T01:15:08;53564.50;;;-143.77;60.05
13836;BME280;6988;52.614;13.500;2022-07-04T01:20:00;53580.91;;;-143.77;60.51
13836;BME280;6988;52.614;13.500;2022-07-04T01:24:53;53572.72;;;-143.77;60.49
13836;BME280;6988;52.614;13.500;2022-07-04T01:29:45;53564.50;;;-143.77;61.22
13836;BME280;6988;52.614;13.500;2022-07-04T01:34:37;53582.97;;;-143.77;61.64
13836;BME280;6988;52.614;13.500;2022-07-04T01:39:29;53603.47;;;-143.77;61.76
13836;BME280;6988;52.614;13.500;2022-07-04T01:44:22;53603.47;;;-143.77;61.58
13836;BME280;6988;52.614;13.500;2022-07-04T01:49:14;53609.63;;;-143.77;61.87
13836;BME280;6988;52.614;13.500;2022-07-04T01:54:06;53597.31;;;-143.77;62.62
13836;BME280;6988;52.614;13.500;2022-07-04T01:58:58;53648.59;;;-143.77;63.60
13836;BME280;6988;52.614;13.500;2022-07-04T02:03:53;53621.94;;;-143.77;64.54
13836;BME280;6988;52.614;13.500;2022-07-04T02:08:45;53642.47;;;-143.77;65.03
13836;BME280;6988;52.614;13.500;2022-07-04T02:13:54;53624.00;;;-143.77;66.32
13836;BME280;6988;52.614;13.500;2022-07-04T02:18:46;53662.97;;;-143.77;67.76
13836;BME280;6988;52.614;13.500;2022-07-04T02:23:39;53656.81;;;-143.77;67.74
13836;BME280;6988;52.614;13.500;2022-07-04T02:28:30;53675.28;;;-143.77;68.22
13836;BME280;6988;52.614;13.500;2022-07-04T02:33:22;53624.00;;;-143.77;67.94
13836;BME280;6988;52.614;13.500;2022-07-04T02:38:14;53673.22;;;-143.77;67.56
13836;BME280;6988;52.614;13.500;2022-07-04T02:43:07;53675.28;;;-143.77;68.18
13836;BME280;6988;52.614;13.500;2022-07-04T02:47:58;53687.59;;;-143.77;68.23
13836;BME280;6988;52.614;13.500;2022-07-04T02:52:51;53673.22;;;-143.77;69.25
13836;BME280;6988;52.614;13.500;2022-07-04T02:57:42;53683.50;;;-143.77;69.74
13836;BME280;6988;52.614;13.500;2022-07-04T03:02:38;53667.06;;;-143.77;70.58
13836;BME280;6988;52.614;13.500;2022-07-04T03:07:30;53677.34;;;-143.77;71.19
13836;BME280;6988;52.614;13.500;2022-07-04T03:12:22;53691.69;;;-143.77;71.43
13836;BME280;6988;52.614;13.500;2022-07-04T03:17:13;53687.59;;;-143.77;71.13
13836;BME280;6988;52.614;13.500;2022-07-04T03:22:06;53693.75;;;-143.77;71.95
13836;BME280;6988;52.614;13.500;2022-07-04T03:26:58;53660.91;;;-143.77;72.09
13836;BME280;6988;52.614;13.500;2022-07-04T03:31:50;53720.41;;;-143.77;71.50
13836;BME280;6988;52.614;13.500;2022-07-04T03:36:41;53701.94;;;-143.77;70.82
13836;BME280;6988;52.614;13.500;2022-07-04T03:41:34;53677.34;;;-143.77;72.95
13836;BME280;6988;52.614;13.500;2022-07-04T03:46:26;53667.06;;;-143.77;73.04
13836;BME280;6988;52.614;13.500;2022-07-04T03:51:18;53689.63;;;-143.77;72.59
13836;BME280;6988;52.614;13.500;2022-07-04T03:56:10;53695.78;;;-143.77;72.90
13836;BME280;6988;52.614;13.500;2022-07-04T04:01:03;53679.38;;;-143.77;72.32
13836;BME280;6988;52.614;13.500;2022-07-04T04:05:55;53671.19;;;-143.77;72.53
13836;BME280;6988;52.614;13.500;2022-07-04T04:10:47;53656.81;;;-143.77;71.69
13836;BME280;6988;52.614;13.500;2022-07-04T04:15:40;53667.06;;;-143.77;71.49
13836;BME280;6988;52.614;13.500;2022-07-04T04:20:33;53650.66;;;-143.77;71.73
13836;BME280;6988;52.614;13.500;2022-07-04T04:25:24;53675.28;;;-143.77;72.06
13836;BME280;6988;52.614;13.500;2022-07-04T04:30:17;53648.59;;;-143.77;71.67
13836;BME280;6988;52.614;13.500;2022-07-04T04:35:09;53642.47;;;-143.77;71.72
13836;BME280;6988;52.614;13.500;2022-07-04T04:40:03;53642.47;;;-143.77;71.94
13836;BME280;6988;52.614;13.500;2022-07-04T04:44:54;53665.03;;;-143.77;71.49
13836;BME280;6988;52.614;13.500;2022-07-04T04:49:46;53601.44;;;-143.77;71.37
13836;BME280;6988;52.614;13.500;2022-07-04T04:54:38;53660.91;;;-143.77;71.12
13836;BME280;6988;52.614;13.500;2022-07-04T04:59:32;53634.25;;;-143.77;71.22
13836;BME280;6988;52.614;13.500;2022-07-04T05:04:24;53632.19;;;-143.77;70.27
13836;BME280;6988;52.614;13.500;2022-07-04T05:09:16;53650.66;;;-143.77;69.96
13836;BME280;6988;52.614;13.500;2022-07-04T05:14:09;53638.34;;;-143.77;70.07
13836;BME280;6988;52.614;13.500;2022-07-04T05:19:02;53613.72;;;-143.77;69.66
13836;BME280;6988;52.614;13.500;2022-07-04T05:23:54;53597.31;;;-143.77;69.30
13836;BME280;6988;52.614;13.500;2022-07-04T05:28:46;53585.00;;;-143.77;68.96
13836;BME280;6988;52.614;13.500;2022-07-04T05:33:37;53613.72;;;-143.77;68.51
13836;BME280;6988;52.614;13.500;2022-07-04T05:38:30;53619.88;;;-143.77;67.29
13836;BME280;6988;52.614;13.500;2022-07-04T05:43:22;53589.13;;;-143.77;67.14
13836;BME280;6988;52.614;13.500;2022-07-04T05:48:15;53613.72;;;-143.77;67.35
13836;BME280;6988;52.614;13.500;2022-07-04T05:53:07;53593.22;;;-143.77;67.16
13836;BME280;6988;52.614;13.500;2022-07-04T05:58:01;53601.44;;;-143.77;67.02
13836;BME280;6988;52.614;13.500;2022-07-04T06:02:52;53591.16;;;-143.77;66.38
13836;BME280;6988;52.614;13.500;2022-07-04T06:07:44;53585.00;;;-143.77;65.80
13836;BME280;6988;52.614;13.500;2022-07-04T06:12:38;53585.00;;;-143.77;64.46
13836;BME280;6988;52.614;13.500;2022-07-04T06:17:31;53580.91;;;-143.77;63.71
13836;BME280;6988;52.614;13.500;2022-07-04T06:22:23;53593.22;;;-143.77;63.08
13836;BME280;6988;52.614;13.500;2022-07-04T06:27:15;53486.53;;;-143.77;61.77
13836;BME280;6988;52.614;13.500;2022-07-04T06:32:07;53515.25;;;-143.77;60.36
13836;BME280;6988;52.614;13.500;2022-07-04T06:37:00;53408.59;;;-143.77;57.73
13836;BME280;6988;52.614;13.500;2022-07-04T06:41:52;53414.75;;;-143.77;55.50
13836;BME280;6988;52.614;13.500;2022-07-04T06:46:43;53402.44;;;-143.77;53.78
13836;BME280;6988;52.614;13.500;2022-07-04T06:51:36;53375.78;;;-143.77;51.36
13836;BME280;6988;52.614;13.500;2022-07-04T06:56:29;53361.41;;;-143.77;51.72
13836;BME280;6988;52.614;13.500;2022-07-04T07:01:21;53334.75;;;-143.77;48.89
13836;BME280;6988;52.614;13.500;2022-07-04T07:06:13;53328.59;;;-143.77;47.45
13836;BME280;6988;52.614;13.500;2022-07-04T07:11:05;53338.84;;;-143.77;46.27
13836;BME280;6988;52.614;13.500;2022-07-04T07:16:11;53267.06;;;-143.77;45.34
13836;BME280;6988;52.614;13.500;2022-07-04T07:21:03;53420.91;;;-143.77;45.34
13836;BME280;6988;52.614;13.500;2022-07-04T07:25:55;53273.19;;;-143.77;45.20
13836;BME280;6988;52.614;13.500;2022-07-04T07:30:47;53244.50;;;-143.77;44.05
13836;BME280;6988;52.614;13.500;2022-07-04T07:35:40;53236.28;;;-143.77;43.92
13836;BME280;6988;52.614;13.500;2022-07-04T07:40:32;53361.41;;;-143.77;42.36
13836;BME280;6988;52.614;13.500;2022-07-04T07:45:24;53375.78;;;-143.77;43.65
13836;BME280;6988;52.614;13.500;2022-07-04T07:50:16;53404.50;;;-143.77;44.75
13836;BME280;6988;52.614;13.500;2022-07-04T07:55:09;53433.22;;;-143.77;46.13
13836;BME280;6988;52.614;13.500;2022-07-04T08:00:01;53425.00;;;-143.77;45.93
13836;BME280;6988;52.614;13.500;2022-07-04T08:05:04;53416.78;;;-143.77;46.31
13836;BME280;6988;52.614;13.500;2022-07-04T08:09:55;53429.09;;;-143.77;46.31
13836;BME280;6988;52.614;13.500;2022-07-04T08:14:48;53412.69;;;-143.77;46.77
13836;BME280;6988;52.614;13.500;2022-07-04T08:19:40;53244.50;;;-143.77;46.04
13836;BME280;6988;52.614;13.500;2022-07-04T08:24:32;53187.06;;;-143.77;44.98
13836;BME280;6988;52.614;13.500;2022-07-04T08:29:23;53172.69;;;-143.77;43.57
13836;BME280;6988;52.614;13.500;2022-07-04T08:34:19;53119.34;;;-143.77;42.86
13836;BME280;6988;52.614;13.500;2022-07-04T08:39:11;53092.69;;;-143.77;41.63
13836;BME280;6988;52.614;13.500;2022-07-04T08:44:04;53072.19;;;-143.77;41.23
13836;BME280;6988;52.614;13.500;2022-07-04T08:49:01;53092.69;;;-143.77;40.43
13836;BME280;6988;52.614;13.500;2022-07-04T08:53:57;53088.59;;;-143.77;40.73
13836;BME280;6988;52.614;13.500;2022-07-04T08:58:49;53039.38;;;-143.77;39.44
13836;BME280;6988;52.614;13.500;2022-07-04T09:03:42;53031.16;;;-143.77;40.67
13836;BME280;6988;52.614;13.500;2022-07-04T09:08:34;53105.00;;;-143.77;40.60
13836;BME280;6988;52.614;13.500;2022-07-04T09:13:27;53070.13;;;-143.77;40.66
13836;BME280;6988;52.614;13.500;2022-07-04T09:18:23;53014.75;;;-143.77;40.31
13836;BME280;6988;52.614;13.500;2022-07-04T09:23:23;53022.94;;;-143.77;38.97
13836;BME280;6988;52.614;13.500;2022-07-04T09:28:29;53199.34;;;-143.77;40.43
13836;BME280;6988;52.614;13.500;2022-07-04T09:33:20;52998.34;;;-143.77;39.37
13836;BME280;6988;52.614;13.500;2022-07-04T09:38:22;52940.91;;;-143.77;38.13
13836;BME280;6988;52.614;13.500;2022-07-04T09:43:14;52951.16;;;-143.77;38.21
13836;BME280;6988;52.614;13.500;2022-07-04T09:48:07;53131.66;;;-143.77;36.52
13836;BME280;6988;52.614;13.500;2022-07-04T09:53:01;53125.50;;;-143.77;38.20
13836;BME280;6988;52.614;13.500;2022-07-04T09:57:57;53174.75;;;-143.77;37.78
13836;BME280;6988;52.614;13.500;2022-07-04T10:02:50;53051.66;;;-143.77;39.10
13836;BME280;6988;52.614;13.500;2022-07-04T10:07:46;52967.56;;;-143.77;38.49
13836;BME280;6988;52.614;13.500;2022-07-04T10:12:41;53119.34;;;-143.77;38.00
13836;BME280;6988;52.614;13.500;2022-07-04T10:17:33;52973.72;;;-143.77;36.36
13836;BME280;6988;52.614;13.500;2022-07-04T10:22:25;53125.50;;;-143.77;37.50
13836;BME280;6988;52.614;13.500;2022-07-04T10:27:19;52910.13;;;-143.77;37.01
13836;BME280;6988;52.614;13.500;2022-07-04T10:32:12;52940.91;;;-143.77;35.17
13836;BME280;6988;52.614;13.500;2022-07-04T10:37:04;52934.75;;;-143.77;35.97
13836;BME280;6988;52.614;13.500;2022-07-04T10:41:57;52891.69;;;-143.77;36.25
13836;BME280;6988;52.614;13.500;2022-07-04T10:46:52;53086.53;;;-143.77;36.25
13836;BME280;6988;52.614;13.500;2022-07-04T10:51:49;53076.28;;;-143.77;36.95
13836;BME280;6988;52.614;13.500;2022-07-04T10:57:10;52928.59;;;-143.77;36.67
13836;BME280;6988;52.614;13.500;2022-07-04T11:02:28;52926.56;;;-143.77;36.86
13836;BME280;6988;52.614;13.500;2022-07-04T11:07:22;53059.88;;;-143.77;36.35
13836;BME280;6988;52.614;13.500;2022-07-04T11:12:14;53080.38;;;-143.77;37.22
13836;BME280;6988;52.614;13.500;2022-07-04T11:17:07;53035.25;;;-143.77;36.64
13836;BME280;6988;52.614;13.500;2022-07-04T11:22:01;53059.88;;;-143.77;36.59
13836;BME280;6988;52.614;13.500;2022-07-04T11:26:53;53133.72;;;-143.77;36.09
13836;BME280;6988;52.614;13.500;2022-07-04T11:31:47;52969.63;;;-143.77;36.69
13836;BME280;6988;52.614;13.500;2022-07-04T11:36:42;53141.91;;;-143.77;37.01
13836;BME280;6988;52.614;13.500;2022-07-04T11:41:38;52969.63;;;-143.77;36.61
13836;BME280;6988;52.614;13.500;2022-07-04T11:46:48;52947.06;;;-143.77;37.07
13836;BME280;6988;52.614;13.500;2022-07-04T11:51:42;52865.00;;;-143.77;36.05
13836;BME280;6988;52.614;13.500;2022-07-04T11:56:35;52850.66;;;-143.77;35.37
13836;BME280;6988;52.614;13.500;2022-07-04T12:01:28;52926.56;;;-143.77;35.17
13836;BME280;6988;52.614;13.500;2022-07-04T12:06:20;52920.41;;;-143.77;35.24
13836;BME280;6988;52.614;13.500;2022-07-04T12:11:12;53107.06;;;-143.77;35.24
13836;BME280;6988;52.614;13.500;2022-07-04T12:16:11;52986.03;;;-143.77;35.50
13836;BME280;6988;52.614;13.500;2022-07-04T12:21:14;53084.50;;;-143.77;35.51
13836;BME280;6988;52.614;13.500;2022-07-04T12:26:09;52979.88;;;-143.77;34.99
13836;BME280;6988;52.614;13.500;2022-07-04T12:31:01;52918.34;;;-143.77;34.71
13836;BME280;6988;52.614;13.500;2022-07-04T12:35:56;52949.13;;;-143.77;34.00
13836;BME280;6988;52.614;13.500;2022-07-04T12:40:56;52926.56;;;-143.77;34.75
13836;BME280;6988;52.614;13.500;2022-07-04T12:45:50;52877.31;;;-143.77;34.20
13836;BME280;6988;52.614;13.500;2022-07-04T12:50:42;53055.78;;;-143.77;34.71
13836;BME280;6988;52.614;13.500;2022-07-04T12:55:37;53113.22;;;-143.77;34.60
13836;BME280;6988;52.614;13.500;2022-07-04T13:00:29;52981.94;;;-143.77;33.94
13836;BME280;6988;52.614;13.500;2022-07-04T13:05:20;52955.25;;;-143.77;33.93
13836;BME280;6988;52.614;13.500;2022-07-04T13:10:12;52914.25;;;-143.77;33.50
13836;BME280;6988;52.614;13.500;2022-07-04T13:15:07;52897.84;;;-143.77;32.47
13836;BME280;6988;52.614;13.500;2022-07-04T13:20:02;52965.53;;;-143.77;32.35
13836;BME280;6988;52.614;13.500;2022-07-04T13:24:54;52998.34;;;-143.77;32.74
13836;BME280;6988;52.614;13.500;2022-07-04T13:29:46;53004.50;;;-143.77;33.41
13836;BME280;6988;52.614;13.500;2022-07-04T13:34:39;53059.88;;;-143.77;33.20
13836;BME280;6988;52.614;13.500;2022-07-04T13:39:32;53076.28;;;-143.77;33.22
13836;BME280;6988;52.614;13.500;2022-07-04T13:44:23;53072.19;;;-143.77;33.93
13836;BME280;6988;52.614;13.500;2022-07-04T13:49:15;53055.78;;;-143.77;32.97
13836;BME280;6988;52.614;13.500;2022-07-04T13:54:09;53102.94;;;-143.77;33.61
13836;BME280;6988;52.614;13.500;2022-07-04T13:59:01;53022.94;;;-143.77;34.30
13836;BME280;6988;52.614;13.500;2022-07-04T14:03:53;53002.44;;;-143.77;33.42
13836;BME280;6988;52.614;13.500;2022-07-04T14:08:45;52965.53;;;-143.77;31.67
13836;BME280;6988;52.614;13.500;2022-07-04T14:13:38;53047.56;;;-143.77;32.60
13836;BME280;6988;52.614;13.500;2022-07-04T14:18:31;52965.53;;;-143.77;33.20
13836;BME280;6988;52.614;13.500;2022-07-04T14:23:22;52940.91;;;-143.77;32.63
13836;BME280;6988;52.614;13.500;2022-07-04T14:28:28;52969.63;;;-143.77;31.98
13836;BME280;6988;52.614;13.500;2022-07-04T14:33:21;52949.13;;;-143.77;31.68
13836;BME280;6988;52.614;13.500;2022-07-04T14:38:13;53031.16;;;-143.77;32.69
13836;BME280;6988;52.614;13.500;2022-07-04T14:43:06;53059.88;;;-143.77;33.13
13836;BME280;6988;52.614;13.500;2022-07-04T14:47:57;53109.09;;;-143.77;32.96
13836;BME280;6988;52.614;13.500;2022-07-04T14:52:51;53090.66;;;-143.77;33.20
13836;BME280;6988;52.614;13.500;2022-07-04T14:57:42;53039.38;;;-143.77;33.38
13836;BME280;6988;52.614;13.500;2022-07-04T15:02:34;53047.56;;;-143.77;31.80
13836;BME280;6988;52.614;13.500;2022-07-04T15:07:26;53027.06;;;-143.77;32.51
13836;BME280;6988;52.614;13.500;2022-07-04T15:12:20;53051.66;;;-143.77;31.96
13836;BME280;6988;52.614;13.500;2022-07-04T15:17:12;53082.44;;;-143.77;32.74
13836;BME280;6988;52.614;13.500;2022-07-04T15:22:03;53100.91;;;-143.77;33.18
13836;BME280;6988;52.614;13.500;2022-07-04T15:27:12;53006.53;;;-143.77;33.78
13836;BME280;6988;52.614;13.500;2022-07-04T15:32:06;53070.13;;;-143.77;32.84
13836;BME280;6988;52.614;13.500;2022-07-04T15:36:58;53100.91;;;-143.77;33.20
13836;BME280;6988;52.614;13.500;2022-07-04T15:41:49;53107.06;;;-143.77;33.38
13836;BME280;6988;52.614;13.500;2022-07-04T15:46:41;53146.03;;;-143.77;33.85
13836;BME280;6988;52.614;13.500;2022-07-04T15:51:48;53102.94;;;-143.77;33.69
13836;BME280;6988;52.614;13.500;2022-07-04T15:56:40;53111.16;;;-143.77;33.74
13836;BME280;6988;52.614;13.500;2022-07-04T16:01:32;53086.53;;;-143.77;33.53
13836;BME280;6988;52.614;13.500;2022-07-04T16:06:23;53063.97;;;-143.77;33.11
13836;BME280;6988;52.614;13.500;2022-07-04T16:11:16;53107.06;;;-143.77;33.66
13836;BME280;6988;52.614;13.500;2022-07-04T16:16:08;53143.97;;;-143.77;33.68
13836;BME280;6988;52.614;13.500;2022-07-04T16:21:00;53088.59;;;-143.77;34.30
13836;BME280;6988;52.614;13.500;2022-07-04T16:25:51;53162.44;;;-143.77;33.87
13836;BME280;6988;52.614;13.500;2022-07-04T16:30:45;53191.16;;;-143.77;34.46
13836;BME280;6988;52.614;13.500;2022-07-04T16:35:37;53166.53;;;-143.77;34.83
13836;BME280;6988;52.614;13.500;2022-07-04T16:40:28;53162.44;;;-143.77;34.00
13836;BME280;6988;52.614;13.500;2022-07-04T16:45:20;53148.06;;;-143.77;34.38
13836;BME280;6988;52.614;13.500;2022-07-04T16:50:13;53182.94;;;-143.77;34.37
13836;BME280;6988;52.614;13.500;2022-07-04T16:55:07;53187.06;;;-143.77;34.63
13836;BME280;6988;52.614;13.500;2022-07-04T16:59:59;53203.47;;;-143.77;35.21
13836;BME280;6988;52.614;13.500;2022-07-04T17:04:50;53191.16;;;-143.77;34.99
13836;BME280;6988;52.614;13.500;2022-07-04T17:09:44;53242.44;;;-143.77;34.91
13836;BME280;6988;52.614;13.500;2022-07-04T17:14:36;53228.06;;;-143.77;35.58
13836;BME280;6988;52.614;13.500;2022-07-04T17:19:27;53258.84;;;-143.77;35.45
13836;BME280;6988;52.614;13.500;2022-07-04T17:24:19;53250.63;;;-143.77;35.88
13836;BME280;6988;52.614;13.500;2022-07-04T17:29:12;53260.91;;;-143.77;35.90
13836;BME280;6988;52.614;13.500;2022-07-04T17:34:04;53250.63;;;-143.77;35.97
13836;BME280;6988;52.614;13.500;2022-07-04T17:38:55;53252.69;;;-143.77;35.65
13836;BME280;6988;52.614;13.500;2022-07-04T17:43:47;53269.09;;;-143.77;36.30
13836;BME280;6988;52.614;13.500;2022-07-04T17:48:40;53275.25;;;-143.77;35.82
13836;BME280;6988;52.614;13.500;2022-07-04T17:53:32;53289.63;;;-143.77;36.09
13836;BME280;6988;52.614;13.500;2022-07-04T17:58:23;53291.66;;;-143.77;36.22
13836;BME280;6988;52.614;13.500;2022-07-04T18:03:15;53338.84;;;-143.77;36.57
13836;BME280;6988;52.614;13.500;2022-07-04T18:08:08;53318.34;;;-143.77;37.31
13836;BME280;6988;52.614;13.500;2022-07-04T18:13:00;53316.28;;;-143.77;37.17
13836;BME280;6988;52.614;13.500;2022-07-04T18:17:52;53308.06;;;-143.77;37.05
13836;BME280;6988;52.614;13.500;2022-07-04T18:22:44;53338.84;;;-143.77;37.36
13836;BME280;6988;52.614;13.500;2022-07-04T18:27:37;53369.63;;;-143.77;37.64
13836;BME280;6988;52.614;13.500;2022-07-04T18:32:28;53338.84;;;-143.77;37.30
13836;BME280;6988;52.614;13.500;2022-07-04T18:37:21;53318.34;;;-143.77;37.57
13836;BME280;6988;52.614;13.500;2022-07-04T18:42:12;53375.78;;;-143.77;37.71
13836;BME280;6988;52.614;13.500;2022-07-04T18:47:34;53371.66;;;-143.77;37.44
13836;BME280;6988;52.614;13.500;2022-07-04T18:52:26;53373.72;;;-143.77;37.92
13836;BME280;6988;52.614;13.500;2022-07-04T18:57:18;53365.50;;;-143.77;38.14
13836;BME280;6988;52.614;13.500;2022-07-04T19:02:09;53371.66;;;-143.77;38.30
13836;BME280;6988;52.614;13.500;2022-07-04T19:07:03;53402.44;;;-143.77;39.66
13836;BME280;6988;52.614;13.500;2022-07-04T19:11:55;53408.59;;;-143.77;40.54
13836;BME280;6988;52.614;13.500;2022-07-04T19:16:47;53412.69;;;-143.77;41.07
13836;BME280;6988;52.614;13.500;2022-07-04T19:21:38;53445.50;;;-143.77;41.43
13836;BME280;6988;52.614;13.500;2022-07-04T19:26:31;53425.00;;;-143.77;42.02
13836;BME280;6988;52.614;13.500;2022-07-04T19:31:23;53441.41;;;-143.77;42.23
13836;BME280;6988;52.614;13.500;2022-07-04T19:36:15;53439.38;;;-143.77;42.57
13836;BME280;6988;52.614;13.500;2022-07-04T19:41:08;53447.56;;;-143.77;43.02
13836;BME280;6988;52.614;13.500;2022-07-04T19:46:01;53468.09;;;-143.77;43.14
13836;BME280;6988;52.614;13.500;2022-07-04T19:50:53;53492.69;;;-143.77;43.46
13836;BME280;6988;52.614;13.500;2022-07-04T19:55:45;53509.09;;;-143.77;43.94
13836;BME280;6988;52.614;13.500;2022-07-04T20:00:37;53498.84;;;-143.77;44.46
13836;BME280;6988;52.614;13.500;2022-07-04T20:05:31;53525.53;;;-143.77;45.10
13836;BME280;6988;52.614;13.500;2022-07-04T20:10:23;53527.56;;;-143.77;45.03
13836;BME280;6988;52.614;13.500;2022-07-04T20:15:16;53535.78;;;-143.77;45.32
13836;BME280;6988;52.614;13.500;2022-07-04T20:20:09;53535.78;;;-143.77;45.34
13836;BME280;6988;52.614;13.500;2022-07-04T20:25:04;53564.50;;;-143.77;45.52
13836;BME280;6988;52.614;13.500;2022-07-04T20:29:56;53552.19;;;-143.77;46.28
13836;BME280;6988;52.614;13.500;2022-07-04T20:34:59;53566.56;;;-143.77;46.56
13836;BME280;6988;52.614;13.500;2022-07-04T20:39:51;53570.66;;;-143.77;46.94
13836;BME280;6988;52.614;13.500;2022-07-04T20:44:44;53566.56;;;-143.77;47.24
13836;BME280;6988;52.614;13.500;2022-07-04T20:49:36;53605.53;;;-143.77;47.58
13836;BME280;6988;52.614;13.500;2022-07-04T20:54:28;53572.72;;;-143.77;47.64
13836;BME280;6988;52.614;13.500;2022-07-04T20:59:20;53605.53;;;-143.77;47.47
13836;BME280;6988;52.614;13.500;2022-07-04T21:04:13;53636.31;;;-143.77;47.54
13836;BME280;6988;52.614;13.500;2022-07-04T21:09:05;53632.19;;;-143.77;47.52
13836;BME280;6988;52.614;13.500;2022-07-04T21:13:57;53628.09;;;-143.77;47.90
13836;BME280;6988;52.614;13.500;2022-07-04T21:18:49;53626.03;;;-143.77;48.66
13836;BME280;6988;52.614;13.500;2022-07-04T21:23:43;53656.81;;;-143.77;49.39
13836;BME280;6988;52.614;13.500;2022-07-04T21:28:34;53660.91;;;-143.77;49.47
13836;BME280;6988;52.614;13.500;2022-07-04T21:33:26;53660.91;;;-143.77;49.98
13836;BME280;6988;52.614;13.500;2022-07-04T21:38:18;53712.22;;;-143.77;50.34
13836;BME280;6988;52.614;13.500;2022-07-04T21:43:11;53665.03;;;-143.77;51.00
13836;BME280;6988;52.614;13.500;2022-07-04T21:48:04;53646.56;;;-143.77;50.81
13836;BME280;6988;52.614;13.500;2022-07-04T21:53:01;53695.78;;;-143.77;50.79
13836;BME280;6988;52.614;13.500;2022-07-04T21:57:53;53687.59;;;-143.77;50.97
13836;BME280;6988;52.614;13.500;2022-07-04T22:02:46;53671.19;;;-143.77;51.06
13836;BME280;6988;52.614;13.500;2022-07-04T22:07:37;53691.69;;;-143.77;50.97
13836;BME280;6988;52.614;13.500;2022-07-04T22:12:29;53706.06;;;-143.77;51.38
13836;BME280;6988;52.614;13.500;2022-07-04T22:17:21;53695.78;;;-143.77;51.36
13836;BME280;6988;52.614;13.500;2022-07-04T22:22:15;53716.31;;;-143.77;51.98
13836;BME280;6988;52.614;13.500;2022-07-04T22:27:07;53726.56;;;-143.77;52.64
13836;BME280;6988;52.614;13.500;2022-07-04T22:31:59;53704.00;;;-143.77;52.89
13836;BME280;6988;52.614;13.500;2022-07-04T22:36:50;53757.34;;;-143.77;52.83
13836;BME280;6988;52.614;13.500;2022-07-04T22:41:43;53732.72;;;-143.77;52.91
13836;BME280;6988;52.614;13.500;2022-07-04T22:46:36;53749.13;;;-143.77;53.17
13836;BME280;6988;52.614;13.500;2022-07-04T22:51:27;53769.66;;;-143.77;53.48
13836;BME280;6988;52.614;13.500;2022-07-04T22:56:19;53742.97;;;-143.77;53.88
13836;BME280;6988;52.614;13.500;2022-07-04T23:01:12;53745.03;;;-143.77;53.75
13836;BME280;6988;52.614;13.500;2022-07-04T23:06:04;53730.66;;;-143.77;54.35
13836;BME280;6988;52.614;13.500;2022-07-04T23:10:56;53773.75;;;-143.77;54.67
13836;BME280;6988;52.614;13.500;2022-07-04T23:15:48;53777.84;;;-143.77;54.73
13836;BME280;6988;52.614;13.500;2022-07-04T23:20:41;53767.59;;;-143.77;55.15
13836;BME280;6988;52.614;13.500;2022-07-04T23:25:32;53794.28;;;-143.77;55.05
13836;BME280;6988;52.614;13.500;2022-07-04T23:30:25;53747.09;;;-143.77;55.34
13836;BME280;6988;52.614;13.500;2022-07-04T23:35:16;53763.50;;;-143.77;55.66
13836;BME280;6988;52.614;13.500;2022-07-04T23:40:10;53757.34;;;-143.77;55.83
13836;BME280;6988;52.614;13.500;2022-07-04T23:45:02;53761.44;;;-143.77;56.37
13836;BME280;6988;52.614;13.500;2022-07-04T23:49:54;53769.66;;;-143.77;56.60
13836;BME280;6988;52.614;13.500;2022-07-04T23:54:46;53794.28;;;-143.77;56.94
13836;BME280;6988;52.614;13.500;2022-07-04T23:59:39;53761.44;;;-143.77;56.99
